Terminal Aerodrome Forecast
Issued by NWS

Home | Current Version | Previous Version | Graphics & Text | Print | Product List | Glossary On
Versions: 1 2 3 4 5 6 7 8 9 10 11 12 13 14 15 16
981
FTUS43 KTOP 212320
TAFMHK
TAF
KMHK 212320Z 2200/2224 05012KT P6SM FEW200
     FM221000 09010KT P6SM SCT200
     FM221700 13013KT P6SM SCT070 BKN150=

USA.gov is the U.S. government's official web portal to all federal, state and local government web resources and services.